Main page
METAR-TAF:

METAR-TAF

Airports :

Mécheria, Algeria

Mécheria Airport

latitude: 34-56N, longitude: 000-26W, elevation: 1149 m

Current weather observation

The report was made 1 hour and 5 minutes ago, at 01:00 UTC
Wind 16 kt from the North/Northeast
Temperature 19°C
Humidity 88%
Pressure 1019 hPa
Visibility 10 km or more
no clouds below 1500 m and no cumulonimbus

METAR: DAAY 290100Z 02016KT CAVOK 19/17 Q1019

Time: 03:05 (02:05 UTC)

Forecast

The report was made 3 hours and 5 minutes ago, at 23:00 UTC
Forecast valid from 29 at 00 UTC to 29 at 09 UTC
Wind 18 kt from the North
Visibility 10 km or more
no clouds below 1500 m and no cumulonimbus

TAF: DAAY 282300Z 2900/2909 36018KT CAVOK

Weather observations and forecasts of more than 4000 airports (METAR and TAF reports).

The available stations are represented by yellow and red dots on the map.

Hover mouse over dot to see the name of the station.

Then click to see weather observations and forecasts.

To change the map : click on the green buttons with a black cross to zoom in, on the green button with a dash to zoom out, or on the green arrows for adjacent maps.


METAR-TAF: